ホーチミン の空港の天気 - METARとTAF

タンソンニャット国際空港 (ホーチミン) ( VVTS / SGN ) - ベトナム ホーチミン市
飛行場実況気象(Metar)
観測時間12/12 17:00 ICT (12/12 10:00 UTC)
風向・風速西 2m/s
視程10km以上
天気現象
全天の4割程度の雲 雲底高度 520m
気温30℃
湿度70%
気圧1010hPa
METARVVTS 121000Z 28004KT 9999 SCT017 30/24 Q1010 NOSIG
過去の天気等 Google飛行場航空写真 Wunderground天気予報

過去48時間のMETAR

飛行場予報(TAF)
発表時間: 12/12 12:00 ICT (12/12 05:00 UTC)
予報対象時間: 12日13時 ICT ~ 13日19時 ICT
風向・風速東 3m/s
視程10km以上
全天の4割程度の雲 雲底高度 520m
TAF VVTS 120500Z 1206/1312 08006KT 9999 SCT017